< < Back
Terminal Aerodrome Forecast


Current Version              Previous Versions:   1  2  3  4  5  6  7  8  9  

Terminal Aerodrome Forecast

324
FTUS42 KCHS 031733
TAFCHS
TAF
KCHS 031733Z 0318/0418 22014G20KT P6SM VCTS SCT025 BKN040CB
      TEMPO 0318/0321 26020G30KT 2SM +TSRA BKN025CB
     FM032300 22010KT P6SM VCSH SCT040 BKN080
     FM040300 25007KT P6SM FEW080 BKN150
     FM041500 26010G16KT P6SM SCT060=

Latest METAR

513
SAUS80 KWBC 032200
MTRCHS
METAR KCHS 032156Z 22007KT 10SM FEW120 BKN250 26/22 A2999 RMK AO2 SLP154
T02560217


USA.gov is the U.S. government's official web portal to all federal, state and local government web resources and services.